Time;durP1;ratioP1;P1;durP2;ratioP2;P2;SDS_P1;SDS_P2;PMS_P1;PMS_P2;Temp;Humidity;BMP_temperature;BMP_pressure;BME280_temperature;BME280_humidity;BME280_pressure;Samples;Min_cycle;Max_cycle;Signal;HPM_P1;HPM_P2
2023/03/12 00:00:07;;;;;;;4.83;3.00;;;;;;;;;;5072670;28;20430;-57
2023/03/12 00:02:33;;;;;;;6.10;3.27;;;;;;;;;;5071668;28;20473;-57
2023/03/12 00:04:59;;;;;;;3.97;3.20;;;;;;;;;;5072054;28;20437;-57
2023/03/12 00:07:25;;;;;;;7.07;3.00;;;;;;;;;;5072155;28;20704;-57
2023/03/12 00:09:51;;;;;;;3.27;2.77;;;;;;;;;;5072219;28;20565;-57
2023/03/12 00:12:18;;;;;;;4.37;3.17;;;;;;;;;;5072281;28;20438;-58
2023/03/12 00:14:44;;;;;;;4.90;2.97;;;;;;;;;;5072105;28;20784;-57
2023/03/12 00:17:10;;;;;;;5.80;3.10;;;;;;;;;;5072077;28;20441;-57
2023/03/12 00:19:36;;;;;;;4.07;3.53;;;;;;;;;;5072133;28;20194;-57
2023/03/12 00:22:02;;;;;;;4.93;3.40;;;;;;;;;;5071463;28;20481;-57
2023/03/12 00:24:28;;;;;;;3.70;3.37;;;;;;;;;;5071539;28;20231;-57
2023/03/12 00:26:54;;;;;;;3.80;3.40;;;;;;;;;;5071859;28;20562;-57
2023/03/12 00:29:22;;;;;;;5.60;3.70;;;;;;;;;;5071833;28;20432;-57
2023/03/12 00:31:50;;;;;;;4.37;3.37;;;;;;;;;;5071967;28;20657;-55
2023/03/12 00:34:16;;;;;;;5.80;3.50;;;;;;;;;;5071457;28;20460;-56
2023/03/12 00:36:42;;;;;;;7.03;3.60;;;;;;;;;;5071677;28;20426;-58
2023/03/12 00:39:09;;;;;;;7.37;3.50;;;;;;;;;;5071814;28;20249;-56
2023/03/12 00:41:35;;;;;;;6.00;3.27;;;;;;;;;;5071109;28;20990;-56
2023/03/12 00:44:01;;;;;;;5.83;3.60;;;;;;;;;;5069796;28;20844;-56
2023/03/12 00:46:28;;;;;;;4.83;3.93;;;;;;;;;;5069543;28;20478;-55
2023/03/12 00:48:54;;;;;;;6.53;3.80;;;;;;;;;;5071671;28;20936;-55
2023/03/12 00:51:20;;;;;;;8.93;3.70;;;;;;;;;;5070927;28;20430;-56
2023/03/12 00:53:46;;;;;;;5.33;3.63;;;;;;;;;;5071383;28;20920;-56
2023/03/12 00:56:13;;;;;;;3.67;3.33;;;;;;;;;;5071402;28;20465;-55
2023/03/12 00:58:41;;;;;;;5.47;3.50;;;;;;;;;;5071425;28;20429;-55
2023/03/12 01:01:07;;;;;;;6.20;3.67;;;;;;;;;;5071508;28;20501;-56
2023/03/12 01:03:34;;;;;;;4.43;3.33;;;;;;;;;;5070527;28;20478;-55
2023/03/12 01:06:00;;;;;;;8.23;3.60;;;;;;;;;;5071645;28;20456;-55
2023/03/12 01:08:27;;;;;;;3.90;3.50;;;;;;;;;;5071684;28;20815;-55
2023/03/12 01:10:53;;;;;;;5.30;3.57;;;;;;;;;;5071387;28;20442;-55
2023/03/12 01:13:19;;;;;;;5.73;3.77;;;;;;;;;;5069551;28;20450;-55
2023/03/12 01:15:45;;;;;;;4.10;3.60;;;;;;;;;;5069802;28;20434;-55
2023/03/12 01:18:11;;;;;;;5.57;3.50;;;;;;;;;;5071402;28;20438;-56
2023/03/12 01:20:39;;;;;;;5.43;3.40;;;;;;;;;;5071687;28;20432;-55
2023/03/12 01:23:06;;;;;;;5.53;4.00;;;;;;;;;;5071434;28;20232;-55
2023/03/12 01:25:33;;;;;;;5.60;3.80;;;;;;;;;;5071325;28;20847;-55
2023/03/12 01:27:59;;;;;;;4.00;3.60;;;;;;;;;;5071405;28;20807;-55
2023/03/12 01:30:25;;;;;;;5.50;4.03;;;;;;;;;;5071542;28;20845;-55
2023/03/12 01:32:51;;;;;;;4.50;3.40;;;;;;;;;;5071616;28;20792;-55
2023/03/12 01:35:17;;;;;;;8.57;3.70;;;;;;;;;;5071326;28;20970;-55
2023/03/12 01:37:44;;;;;;;4.03;3.30;;;;;;;;;;5071100;28;20453;-55
2023/03/12 01:40:14;;;;;;;4.20;3.53;;;;;;;;;;5071287;28;20446;-54
2023/03/12 01:42:40;;;;;;;4.60;3.07;;;;;;;;;;5071117;28;20500;-55
2023/03/12 01:45:06;;;;;;;6.70;3.40;;;;;;;;;;5070943;28;21014;-54
2023/03/12 01:47:32;;;;;;;5.53;3.87;;;;;;;;;;5071323;28;20202;-55
2023/03/12 01:49:59;;;;;;;6.10;3.93;;;;;;;;;;5071269;28;20429;-55
2023/03/12 01:52:27;;;;;;;4.77;3.47;;;;;;;;;;5073941;28;20241;-55
2023/03/12 01:54:58;;;;;;;5.13;3.50;;;;;;;;;;5075218;28;20521;-55
2023/03/12 01:57:27;;;;;;;5.87;3.70;;;;;;;;;;5075120;28;20449;-55
2023/03/12 01:59:56;;;;;;;7.33;4.47;;;;;;;;;;5075272;28;20425;-54
2023/03/12 02:02:25;;;;;;;4.70;4.00;;;;;;;;;;5074951;28;20485;-55
2023/03/12 02:04:52;;;;;;;4.50;3.50;;;;;;;;;;5074969;28;20520;-54
2023/03/12 02:07:18;;;;;;;5.73;3.70;;;;;;;;;;5074836;28;20430;-54
2023/03/12 02:09:45;;;;;;;4.67;3.50;;;;;;;;;;5074907;28;20438;-54
2023/03/12 02:12:13;;;;;;;6.30;4.67;;;;;;;;;;5074441;28;20461;-55
2023/03/12 02:14:39;;;;;;;7.63;4.83;;;;;;;;;;5074516;28;20441;-55
2023/03/12 02:17:05;;;;;;;7.30;5.50;;;;;;;;;;5074685;28;20939;-55
2023/03/12 02:19:38;;;;;;;5.40;4.57;;;;;;;;;;5074463;28;20803;-55
2023/03/12 02:22:04;;;;;;;6.80;4.53;;;;;;;;;;5074593;28;20469;-55
2023/03/12 02:24:32;;;;;;;7.40;4.43;;;;;;;;;;5074311;28;21105;-55
2023/03/12 02:27:00;;;;;;;7.43;4.43;;;;;;;;;;5074506;28;20529;-55
2023/03/12 02:29:27;;;;;;;6.07;4.30;;;;;;;;;;5074408;28;20450;-55
2023/03/12 02:31:55;;;;;;;3.93;3.50;;;;;;;;;;5074529;28;20852;-55
2023/03/12 02:34:21;;;;;;;4.97;4.27;;;;;;;;;;5074262;28;20425;-55
2023/03/12 02:36:47;;;;;;;4.93;3.73;;;;;;;;;;5074388;28;20434;-55
2023/03/12 02:39:13;;;;;;;3.93;3.50;;;;;;;;;;5074167;28;20646;-55
2023/03/12 02:41:41;;;;;;;6.53;4.17;;;;;;;;;;5074205;28;20478;-55
2023/03/12 02:44:10;;;;;;;5.47;3.57;;;;;;;;;;5074054;28;20338;-55
2023/03/12 02:46:38;;;;;;;5.07;4.00;;;;;;;;;;5074250;28;20442;-55
2023/03/12 02:49:04;;;;;;;4.40;3.93;;;;;;;;;;5073844;28;20445;-55
2023/03/12 02:51:31;;;;;;;4.67;3.63;;;;;;;;;;5074055;28;20445;-55
2023/03/12 02:53:57;;;;;;;5.67;3.30;;;;;;;;;;5074106;28;20854;-55
2023/03/12 02:56:23;;;;;;;4.23;3.47;;;;;;;;;;5073868;28;20445;-55
2023/03/12 02:58:50;;;;;;;3.33;3.00;;;;;;;;;;5074004;28;20438;-55
2023/03/12 03:01:17;;;;;;;4.00;3.00;;;;;;;;;;5073802;28;20426;-55
2023/03/12 03:03:44;;;;;;;4.97;3.50;;;;;;;;;;5072451;28;20449;-58
2023/03/12 03:06:10;;;;;;;3.37;3.07;;;;;;;;;;5072708;28;20444;-55
2023/03/12 03:08:36;;;;;;;4.40;3.30;;;;;;;;;;5073380;28;20446;-55
2023/03/12 03:11:02;;;;;;;4.03;3.60;;;;;;;;;;5073422;28;20438;-55
2023/03/12 03:13:28;;;;;;;5.03;3.80;;;;;;;;;;5073498;28;20203;-55
2023/03/12 03:15:57;;;;;;;6.33;3.57;;;;;;;;;;5073772;28;20445;-55
2023/03/12 03:18:24;;;;;;;4.63;3.57;;;;;;;;;;5073494;28;20795;-55
2023/03/12 03:20:54;;;;;;;5.07;3.73;;;;;;;;;;5073368;28;20449;-55
2023/03/12 03:23:20;;;;;;;7.10;3.87;;;;;;;;;;5073331;28;20481;-55
2023/03/12 03:25:46;;;;;;;6.77;4.10;;;;;;;;;;5073391;28;20805;-55
2023/03/12 03:28:12;;;;;;;5.93;4.30;;;;;;;;;;5073393;28;20191;-55
2023/03/12 03:30:38;;;;;;;7.23;3.93;;;;;;;;;;5073529;28;20306;-55
2023/03/12 03:33:04;;;;;;;7.07;3.33;;;;;;;;;;5073239;28;20206;-55
2023/03/12 03:35:33;;;;;;;4.63;3.80;;;;;;;;;;5072949;28;20461;-55
2023/03/12 03:37:59;;;;;;;5.57;3.90;;;;;;;;;;5073057;28;20932;-55
2023/03/12 03:40:25;;;;;;;4.70;3.53;;;;;;;;;;5073095;28;20499;-55
2023/03/12 03:42:51;;;;;;;4.10;3.37;;;;;;;;;;5073115;28;20485;-55
2023/03/12 03:45:18;;;;;;;6.13;3.87;;;;;;;;;;5072810;28;20238;-55
2023/03/12 03:47:44;;;;;;;4.93;3.93;;;;;;;;;;5072939;28;20222;-55
2023/03/12 03:50:11;;;;;;;4.17;3.77;;;;;;;;;;5073076;28;21010;-55
2023/03/12 03:52:38;;;;;;;4.40;3.97;;;;;;;;;;5072886;28;20256;-55
2023/03/12 03:55:04;;;;;;;5.13;3.67;;;;;;;;;;5072911;28;20479;-55
2023/03/12 03:57:31;;;;;;;8.50;4.73;;;;;;;;;;5072630;28;20441;-55
2023/03/12 04:00:00;;;;;;;4.73;4.10;;;;;;;;;;5069313;28;20501;-55
2023/03/12 04:02:26;;;;;;;7.23;4.00;;;;;;;;;;5072765;28;20478;-54
2023/03/12 04:04:52;;;;;;;7.43;3.80;;;;;;;;;;5072755;28;20916;-55
2023/03/12 04:07:20;;;;;;;6.27;3.77;;;;;;;;;;5072635;28;20927;-55
2023/03/12 04:09:47;;;;;;;5.27;4.10;;;;;;;;;;5072680;28;20422;-55
2023/03/12 04:12:13;;;;;;;9.13;4.97;;;;;;;;;;5072618;28;20438;-55
2023/03/12 04:14:40;;;;;;;10.83;7.07;;;;;;;;;;5072694;28;20549;-55
2023/03/12 04:17:06;;;;;;;12.37;6.53;;;;;;;;;;5072369;28;20711;-55
2023/03/12 04:19:32;;;;;;;9.37;6.00;;;;;;;;;;5072296;28;20422;-55
2023/03/12 04:21:58;;;;;;;10.33;7.90;;;;;;;;;;5072460;28;20258;-55
2023/03/12 04:24:24;;;;;;;9.30;8.03;;;;;;;;;;5072407;28;20196;-57
2023/03/12 04:26:51;;;;;;;6.67;5.97;;;;;;;;;;5072334;28;20584;-55
2023/03/12 04:29:17;;;;;;;7.73;6.23;;;;;;;;;;5072246;28;20437;-55
2023/03/12 04:31:43;;;;;;;7.70;5.97;;;;;;;;;;5072076;28;20426;-55
2023/03/12 04:34:09;;;;;;;9.83;5.43;;;;;;;;;;5071910;28;20985;-55
2023/03/12 04:36:35;;;;;;;6.47;4.90;;;;;;;;;;5072019;28;20434;-55
2023/03/12 04:39:05;;;;;;;5.97;4.63;;;;;;;;;;5072101;28;20203;-55
2023/03/12 04:41:31;;;;;;;7.23;4.37;;;;;;;;;;5072009;28;21129;-55
2023/03/12 04:43:59;;;;;;;6.13;4.37;;;;;;;;;;5071771;28;20476;-55
2023/03/12 04:46:25;;;;;;;5.00;4.13;;;;;;;;;;5072009;28;20442;-55
2023/03/12 04:48:51;;;;;;;5.53;3.63;;;;;;;;;;5071798;28;20911;-55
2023/03/12 04:51:17;;;;;;;5.33;4.40;;;;;;;;;;5071814;28;20444;-55
2023/03/12 04:53:43;;;;;;;6.87;4.30;;;;;;;;;;5072054;28;20481;-55
2023/03/12 04:56:09;;;;;;;5.27;4.03;;;;;;;;;;5072020;28;20438;-55
2023/03/12 04:58:36;;;;;;;5.33;4.30;;;;;;;;;;5071728;28;20442;-55
2023/03/12 05:01:04;;;;;;;6.30;4.40;;;;;;;;;;5071823;28;20203;-55
2023/03/12 05:03:30;;;;;;;4.30;3.90;;;;;;;;;;5071450;28;20489;-55
2023/03/12 05:05:56;;;;;;;4.63;3.97;;;;;;;;;;5071862;28;20446;-55
2023/03/12 05:08:22;;;;;;;4.10;3.70;;;;;;;;;;5071755;28;20445;-55
2023/03/12 05:10:48;;;;;;;6.27;3.57;;;;;;;;;;5071862;28;20199;-55
2023/03/12 05:13:15;;;;;;;4.87;3.70;;;;;;;;;;5071628;28;20430;-55
2023/03/12 05:15:41;;;;;;;5.43;3.87;;;;;;;;;;5071576;28;20499;-55
2023/03/12 05:18:09;;;;;;;4.70;3.30;;;;;;;;;;5071696;28;20461;-55
2023/03/12 05:20:35;;;;;;;4.27;3.70;;;;;;;;;;5071405;28;20484;-56
2023/03/12 05:23:01;;;;;;;5.47;3.77;;;;;;;;;;5071484;28;20493;-55
2023/03/12 05:25:27;;;;;;;6.53;4.57;;;;;;;;;;5071744;28;20473;-55
2023/03/12 05:27:54;;;;;;;4.90;3.83;;;;;;;;;;5078031;28;20199;-55
2023/03/12 05:30:20;;;;;;;4.83;3.57;;;;;;;;;;5078089;28;20253;-55
2023/03/12 05:32:46;;;;;;;4.40;3.63;;;;;;;;;;5078259;28;20434;-55
2023/03/12 05:35:14;;;;;;;5.03;4.00;;;;;;;;;;5078085;28;20513;-56
2023/03/12 05:37:41;;;;;;;3.43;3.13;;;;;;;;;;5078146;28;20214;-55
2023/03/12 05:40:09;;;;;;;5.13;3.63;;;;;;;;;;5078183;28;20426;-55
2023/03/12 05:42:35;;;;;;;4.73;3.43;;;;;;;;;;5076048;28;20477;-56
2023/03/12 05:45:01;;;;;;;4.37;3.43;;;;;;;;;;5077702;28;21143;-55
2023/03/12 05:47:27;;;;;;;5.13;3.27;;;;;;;;;;5077854;28;20207;-55
2023/03/12 05:49:53;;;;;;;3.83;3.37;;;;;;;;;;5077946;28;20429;-55
2023/03/12 05:52:20;;;;;;;5.87;3.57;;;;;;;;;;5077504;28;20560;-55
2023/03/12 05:54:46;;;;;;;5.47;3.80;;;;;;;;;;5077794;28;20692;-55
2023/03/12 05:57:12;;;;;;;5.67;3.80;;;;;;;;;;5077886;28;20433;-55
2023/03/12 05:59:38;;;;;;;4.40;3.50;;;;;;;;;;5077926;28;20207;-55
2023/03/12 06:02:04;;;;;;;4.33;3.90;;;;;;;;;;5077910;28;20481;-55
2023/03/12 06:04:30;;;;;;;4.30;2.97;;;;;;;;;;5077658;28;20793;-55
2023/03/12 06:06:56;;;;;;;6.93;3.50;;;;;;;;;;5078023;28;20608;-55
2023/03/12 06:09:23;;;;;;;4.10;3.30;;;;;;;;;;5077860;28;20819;-55
2023/03/12 06:11:49;;;;;;;4.50;3.47;;;;;;;;;;5077909;28;20671;-55
2023/03/12 06:14:15;;;;;;;5.60;3.70;;;;;;;;;;5077808;28;20774;-55
2023/03/12 06:16:41;;;;;;;4.50;3.40;;;;;;;;;;5077675;28;20227;-55
2023/03/12 06:19:12;;;;;;;5.60;3.50;;;;;;;;;;5077886;28;20214;-55
2023/03/12 06:21:38;;;;;;;4.43;3.27;;;;;;;;;;5077603;28;20258;-55
2023/03/12 06:24:05;;;;;;;4.23;3.47;;;;;;;;;;5077448;28;20457;-55
2023/03/12 06:26:33;;;;;;;4.73;3.53;;;;;;;;;;5077496;28;20191;-55
2023/03/12 06:28:58;;;;;;;5.77;3.50;;;;;;;;;;5077516;28;20445;-55
2023/03/12 06:31:25;;;;;;;5.90;3.57;;;;;;;;;;5077576;28;20441;-56
2023/03/12 06:33:52;;;;;;;4.03;3.50;;;;;;;;;;5077614;28;20207;-55
2023/03/12 06:36:18;;;;;;;4.07;3.60;;;;;;;;;;5077623;28;20430;-55
2023/03/12 06:38:44;;;;;;;5.17;3.40;;;;;;;;;;5073710;28;20844;-56
2023/03/12 06:41:11;;;;;;;6.17;3.87;;;;;;;;;;5074483;28;20445;-56
2023/03/12 06:43:40;;;;;;;5.13;3.50;;;;;;;;;;5073950;28;20481;-55
2023/03/12 06:46:07;;;;;;;6.83;3.70;;;;;;;;;;5074322;28;20458;-55
2023/03/12 06:48:35;;;;;;;5.10;3.80;;;;;;;;;;5073961;28;20449;-55
2023/03/12 06:51:01;;;;;;;4.23;3.43;;;;;;;;;;5074210;28;20460;-55
2023/03/12 06:53:27;;;;;;;6.50;3.60;;;;;;;;;;5074142;28;20495;-55
2023/03/12 06:55:53;;;;;;;4.70;3.47;;;;;;;;;;5074168;28;20437;-55
2023/03/12 06:58:19;;;;;;;6.10;3.37;;;;;;;;;;5073715;28;20282;-55
2023/03/12 07:00:46;;;;;;;4.10;3.50;;;;;;;;;;5073782;28;20207;-55
2023/03/12 07:03:12;;;;;;;5.40;3.40;;;;;;;;;;5073910;28;20322;-55
2023/03/12 07:05:38;;;;;;;3.40;3.10;;;;;;;;;;5074052;28;20450;-55
2023/03/12 07:08:05;;;;;;;3.93;3.23;;;;;;;;;;5072915;28;20648;-55
2023/03/12 07:10:31;;;;;;;3.73;3.40;;;;;;;;;;5073411;28;20433;-54
2023/03/12 07:12:57;;;;;;;6.67;3.60;;;;;;;;;;5073834;28;20438;-55
2023/03/12 07:15:23;;;;;;;4.30;3.77;;;;;;;;;;5073809;28;20242;-55
2023/03/12 07:17:50;;;;;;;7.37;3.57;;;;;;;;;;5073512;28;20207;-55
2023/03/12 07:20:16;;;;;;;4.17;3.77;;;;;;;;;;5073629;28;20429;-55
2023/03/12 07:22:42;;;;;;;3.60;3.07;;;;;;;;;;5073385;28;20482;-55
2023/03/12 07:25:09;;;;;;;5.00;3.70;;;;;;;;;;5073625;28;20432;-55
2023/03/12 07:27:35;;;;;;;6.63;3.57;;;;;;;;;;5073306;28;20201;-55
2023/03/12 07:30:01;;;;;;;4.37;3.47;;;;;;;;;;5073307;28;20488;-54
2023/03/12 07:32:27;;;;;;;5.40;3.50;;;;;;;;;;5073233;28;20439;-53
2023/03/12 07:34:54;;;;;;;3.73;3.40;;;;;;;;;;5071435;28;20537;-54
2023/03/12 07:37:20;;;;;;;3.63;3.03;;;;;;;;;;5073100;28;20473;-54
2023/03/12 07:39:51;;;;;;;5.53;3.70;;;;;;;;;;5072921;28;20462;-54
2023/03/12 07:42:17;;;;;;;5.53;3.80;;;;;;;;;;5072754;28;20480;-54
2023/03/12 07:44:42;;;;;;;6.30;3.80;;;;;;;;;;5072739;28;20473;-54
2023/03/12 07:47:09;;;;;;;6.03;3.60;;;;;;;;;;5073117;28;20586;-55
2023/03/12 07:49:35;;;;;;;5.90;4.00;;;;;;;;;;5072617;28;20261;-55
2023/03/12 07:52:03;;;;;;;7.37;3.97;;;;;;;;;;5072982;28;20434;-55
2023/03/12 07:54:29;;;;;;;4.47;3.17;;;;;;;;;;5072664;28;20227;-57
2023/03/12 07:56:55;;;;;;;5.23;3.73;;;;;;;;;;5072842;28;20477;-56
2023/03/12 07:59:22;;;;;;;13.73;7.53;;;;;;;;;;5072712;28;20206;-55
2023/03/12 08:01:48;;;;;;;6.60;4.27;;;;;;;;;;5072639;28;20557;-56
2023/03/12 08:04:15;;;;;;;6.57;4.00;;;;;;;;;;5072595;28;20488;-61
2023/03/12 08:06:44;;;;;;;3.30;3.00;;;;;;;;;;5072584;28;20437;-57
2023/03/12 08:09:11;;;;;;;4.03;3.17;;;;;;;;;;5072573;28;20937;-57
2023/03/12 08:11:37;;;;;;;4.70;3.40;;;;;;;;;;5072563;28;20438;-57
2023/03/12 08:14:03;;;;;;;3.93;3.17;;;;;;;;;;5072673;28;20421;-59
2023/03/12 08:16:29;;;;;;;4.27;3.03;;;;;;;;;;5072443;28;20458;-59
2023/03/12 08:18:55;;;;;;;6.37;4.80;;;;;;;;;;5072449;28;20496;-57
2023/03/12 08:21:21;;;;;;;5.67;3.20;;;;;;;;;;5072019;28;20303;-56
2023/03/12 08:23:47;;;;;;;3.43;3.13;;;;;;;;;;5071909;28;20228;-56
2023/03/12 08:26:14;;;;;;;5.10;2.93;;;;;;;;;;5072134;28;20199;-55
2023/03/12 08:28:40;;;;;;;4.07;3.10;;;;;;;;;;5072260;28;20434;-55
2023/03/12 08:31:08;;;;;;;7.27;3.10;;;;;;;;;;5072192;28;20518;-55
2023/03/12 08:33:34;;;;;;;4.67;2.70;;;;;;;;;;5071111;28;20441;-56
2023/03/12 08:36:00;;;;;;;4.57;3.17;;;;;;;;;;5071593;28;20434;-56
2023/03/12 08:38:26;;;;;;;3.70;2.70;;;;;;;;;;5071958;28;20199;-56
2023/03/12 08:40:56;;;;;;;4.87;3.10;;;;;;;;;;5072219;28;20538;-55
2023/03/12 08:43:23;;;;;;;4.73;3.23;;;;;;;;;;5071801;28;20478;-55
2023/03/12 08:45:52;;;;;;;4.90;3.10;;;;;;;;;;5071895;28;20912;-56
2023/03/12 08:48:18;;;;;;;3.60;3.03;;;;;;;;;;5071856;28;20445;-57
2023/03/12 08:50:44;;;;;;;3.23;2.67;;;;;;;;;;5071881;28;20426;-56
2023/03/12 08:53:10;;;;;;;2.90;2.60;;;;;;;;;;5071971;28;20188;-56
2023/03/12 08:55:36;;;;;;;4.63;3.30;;;;;;;;;;5071935;28;20606;-56
2023/03/12 08:58:02;;;;;;;4.10;3.40;;;;;;;;;;5071717;28;20452;-56
2023/03/12 09:00:30;;;;;;;6.20;3.40;;;;;;;;;;5071270;28;20488;-56
2023/03/12 09:02:57;;;;;;;5.43;3.00;;;;;;;;;;5071611;28;20493;-56
2023/03/12 09:05:23;;;;;;;6.13;3.40;;;;;;;;;;5071672;28;20499;-56
2023/03/12 09:07:49;;;;;;;5.33;2.70;;;;;;;;;;5071790;28;20466;-56
2023/03/12 09:10:15;;;;;;;5.13;2.93;;;;;;;;;;5071460;28;20452;-56
2023/03/12 09:12:41;;;;;;;4.20;2.80;;;;;;;;;;5070303;28;20299;-56
2023/03/12 09:15:08;;;;;;;3.60;3.00;;;;;;;;;;5071286;28;20923;-59
2023/03/12 09:17:36;;;;;;;5.07;2.93;;;;;;;;;;5071465;28;20452;-57
2023/03/12 09:20:05;;;;;;;6.13;2.93;;;;;;;;;;5071514;28;20967;-56
2023/03/12 09:22:31;;;;;;;3.53;3.10;;;;;;;;;;5070980;28;20994;-55
2023/03/12 09:24:57;;;;;;;6.60;2.80;;;;;;;;;;5071259;28;20457;-57
2023/03/12 09:27:23;;;;;;;3.50;2.73;;;;;;;;;;5071276;28;20438;-57
2023/03/12 09:29:50;;;;;;;6.63;2.90;;;;;;;;;;5071196;28;20445;-57
2023/03/12 09:32:16;;;;;;;3.60;2.40;;;;;;;;;;5071091;28;20195;-56
2023/03/12 09:34:43;;;;;;;5.70;2.83;;;;;;;;;;5071271;28;20520;-56
2023/03/12 09:37:09;;;;;;;3.33;2.77;;;;;;;;;;5071269;28;20749;-56
2023/03/12 09:39:35;;;;;;;6.53;2.70;;;;;;;;;;5071032;28;20545;-56
2023/03/12 09:42:03;;;;;;;6.73;2.53;;;;;;;;;;5070968;28;20524;-56
2023/03/12 09:44:31;;;;;;;4.13;2.77;;;;;;;;;;5070757;28;20238;-56
2023/03/12 09:47:00;;;;;;;4.23;2.70;;;;;;;;;;5070882;28;20446;-56
2023/03/12 09:49:29;;;;;;;4.03;2.73;;;;;;;;;;5071182;28;20931;-56
2023/03/12 09:51:58;;;;;;;3.57;2.40;;;;;;;;;;5071062;28;20430;-57
2023/03/12 09:54:27;;;;;;;4.10;2.50;;;;;;;;;;5071225;28;20448;-56
2023/03/12 09:56:55;;;;;;;5.23;2.83;;;;;;;;;;5069284;28;20438;-57
2023/03/12 09:59:21;;;;;;;3.13;2.70;;;;;;;;;;5071167;28;20433;-57
2023/03/12 10:01:51;;;;;;;3.10;2.73;;;;;;;;;;5071122;28;20442;-58
2023/03/12 10:04:23;;;;;;;3.13;2.43;;;;;;;;;;5071179;28;20444;-57
2023/03/12 10:06:52;;;;;;;3.20;2.90;;;;;;;;;;5071240;28;20441;-57
2023/03/12 10:09:28;;;;;;;2.80;2.40;;;;;;;;;;5071339;28;20487;-58
2023/03/12 10:11:56;;;;;;;4.27;3.13;;;;;;;;;;5071482;28;20441;-60
2023/03/12 10:14:31;;;;;;;3.00;2.67;;;;;;;;;;5074869;28;20529;-56
2023/03/12 10:17:06;;;;;;;9.03;3.03;;;;;;;;;;5074911;28;20441;-58
2023/03/12 10:19:38;;;;;;;4.77;2.70;;;;;;;;;;5074957;28;20997;-64
2023/03/12 10:22:07;;;;;;;3.27;2.60;;;;;;;;;;5074456;28;20469;-61
2023/03/12 10:24:39;;;;;;;3.63;2.40;;;;;;;;;;5074429;28;20438;-59
2023/03/12 10:27:10;;;;;;;4.43;2.20;;;;;;;;;;5065325;28;20441;-58
2023/03/12 10:29:38;;;;;;;4.13;2.50;;;;;;;;;;5073921;28;20930;-58
2023/03/12 10:32:06;;;;;;;2.93;2.47;;;;;;;;;;5074193;28;20436;-58
2023/03/12 10:34:36;;;;;;;2.80;2.50;;;;;;;;;;5073837;28;20444;-58
2023/03/12 10:37:04;;;;;;;6.20;2.53;;;;;;;;;;5074041;28;20967;-58
2023/03/12 10:39:31;;;;;;;4.73;2.80;;;;;;;;;;5074178;28;20472;-58
2023/03/12 10:42:00;;;;;;;5.03;2.40;;;;;;;;;;5073977;28;20454;-57
2023/03/12 10:44:27;;;;;;;8.43;2.50;;;;;;;;;;5073738;28;20480;-57
2023/03/12 10:46:58;;;;;;;5.33;2.70;;;;;;;;;;5074487;28;20583;-57
2023/03/12 10:49:29;;;;;;;3.63;2.30;;;;;;;;;;5073715;28;20456;-57
2023/03/12 10:51:56;;;;;;;4.43;2.43;;;;;;;;;;5074402;28;20440;-58
2023/03/12 10:54:23;;;;;;;4.50;2.40;;;;;;;;;;5074021;28;20429;-58
2023/03/12 10:56:50;;;;;;;3.17;2.23;;;;;;;;;;5073746;28;20795;-56
2023/03/12 10:59:21;;;;;;;3.87;2.77;;;;;;;;;;5073684;28;20430;-60
2023/03/12 11:01:49;;;;;;;3.53;2.40;;;;;;;;;;5073449;28;20446;-63
2023/03/12 11:04:16;;;;;;;2.90;2.30;;;;;;;;;;5073900;28;20544;-59
2023/03/12 11:06:42;;;;;;;2.87;2.30;;;;;;;;;;5073344;28;20437;-60
2023/03/12 11:09:16;;;;;;;6.43;2.70;;;;;;;;;;5073483;28;20438;-60
2023/03/12 11:11:44;;;;;;;5.50;2.80;;;;;;;;;;5073360;28;20936;-60
2023/03/12 11:14:15;;;;;;;5.00;3.00;;;;;;;;;;5073407;28;20545;-59
2023/03/12 11:16:43;;;;;;;4.03;2.47;;;;;;;;;;5073600;28;20851;-59
2023/03/12 11:19:11;;;;;;;7.80;2.90;;;;;;;;;;5074046;28;20437;-58
2023/03/12 11:21:39;;;;;;;4.97;2.70;;;;;;;;;;5069767;28;20483;-59
2023/03/12 11:24:07;;;;;;;3.40;2.73;;;;;;;;;;5071703;28;20983;-60
2023/03/12 11:26:35;;;;;;;4.03;2.97;;;;;;;;;;5072600;28;20449;-60
2023/03/12 11:29:02;;;;;;;7.07;3.07;;;;;;;;;;5072666;28;20450;-59
2023/03/12 11:31:30;;;;;;;5.23;3.43;;;;;;;;;;5072272;28;20465;-58
2023/03/12 11:34:00;;;;;;;5.70;3.00;;;;;;;;;;5072919;28;20453;-59
2023/03/12 11:36:32;;;;;;;3.73;3.00;;;;;;;;;;5072647;28;20444;-59
2023/03/12 11:39:02;;;;;;;6.40;3.03;;;;;;;;;;5070732;28;20537;-58
2023/03/12 11:41:35;;;;;;;4.53;3.17;;;;;;;;;;5072395;28;21003;-60
2023/03/12 11:44:08;;;;;;;3.73;3.33;;;;;;;;;;5072599;28;20520;-59
2023/03/12 11:46:41;;;;;;;8.13;3.50;;;;;;;;;;5072787;28;20438;-59
2023/03/12 11:49:14;;;;;;;5.20;3.87;;;;;;;;;;5070532;28;20438;-60
2023/03/12 11:51:43;;;;;;;7.03;3.67;;;;;;;;;;5072375;28;20484;-60
2023/03/12 11:54:26;;;;;;;10.63;4.20;;;;;;;;;;5072378;28;20442;-59
2023/03/12 11:56:53;;;;;;;8.07;4.23;;;;;;;;;;5069679;28;20495;-61
2023/03/12 11:59:31;;;;;;;5.47;4.03;;;;;;;;;;5052342;28;20435;-60
2023/03/12 12:02:00;;;;;;;7.40;4.40;;;;;;;;;;5051876;28;20466;-59
2023/03/12 12:04:41;;;;;;;5.90;4.77;;;;;;;;;;5052197;28;20439;-59
2023/03/12 12:07:14;;;;;;;6.30;5.43;;;;;;;;;;5049576;28;20446;-60
2023/03/12 12:09:43;;;;;;;6.13;5.53;;;;;;;;;;5052339;28;20556;-59
2023/03/12 12:12:17;;;;;;;9.20;6.83;;;;;;;;;;5052103;28;20434;-59
2023/03/12 12:14:52;;;;;;;7.50;6.17;;;;;;;;;;5033657;28;20975;-60
2023/03/12 12:17:23;;;;;;;7.57;6.67;;;;;;;;;;5051972;28;20447;-59
2023/03/12 12:19:56;;;;;;;8.23;6.23;;;;;;;;;;5051750;28;20455;-60
2023/03/12 12:22:35;;;;;;;9.47;6.93;;;;;;;;;;5051913;28;20560;-58
2023/03/12 12:25:15;;;;;;;9.83;6.87;;;;;;;;;;5051676;28;20452;-60
2023/03/12 12:27:44;;;;;;;7.20;6.50;;;;;;;;;;5051607;28;20442;-59
2023/03/12 12:30:14;;;;;;;9.90;7.23;;;;;;;;;;5051816;28;20443;-59
2023/03/12 12:32:52;;;;;;;8.43;6.83;;;;;;;;;;5051608;28;20526;-60
2023/03/12 12:35:23;;;;;;;9.03;7.40;;;;;;;;;;5051078;28;20463;-59
2023/03/12 12:37:52;;;;;;;11.03;7.77;;;;;;;;;;5050773;28;20457;-59
2023/03/12 12:40:20;;;;;;;8.80;7.80;;;;;;;;;;5051481;28;20435;-59
2023/03/12 12:42:56;;;;;;;11.07;8.50;;;;;;;;;;5051031;28;20482;-60
2023/03/12 12:45:22;;;;;;;9.57;8.30;;;;;;;;;;5051515;28;20474;-59
2023/03/12 12:47:50;;;;;;;11.27;8.77;;;;;;;;;;5050929;28;20462;-59
2023/03/12 12:50:18;;;;;;;10.13;9.03;;;;;;;;;;5049568;28;20449;-59
2023/03/12 12:52:44;;;;;;;11.50;9.03;;;;;;;;;;5051225;28;20489;-60
2023/03/12 12:55:14;;;;;;;12.90;9.23;;;;;;;;;;5051452;28;20806;-59
2023/03/12 12:57:42;;;;;;;10.97;9.70;;;;;;;;;;5051313;28;20477;-60
2023/03/12 13:00:23;;;;;;;10.50;9.40;;;;;;;;;;5051397;28;20937;-59
2023/03/12 13:02:49;;;;;;;10.03;9.13;;;;;;;;;;5048638;28;20529;-60
2023/03/12 13:05:20;;;;;;;11.30;10.20;;;;;;;;;;5051065;28;20986;-60
2023/03/12 13:07:46;;;;;;;11.27;10.10;;;;;;;;;;5051122;28;20469;-60
2023/03/12 13:10:27;;;;;;;14.77;10.73;;;;;;;;;;5051232;28;20431;-60
2023/03/12 13:12:55;;;;;;;12.60;11.13;;;;;;;;;;5050452;28;20452;-60
2023/03/12 13:15:38;;;;;;;13.33;10.57;;;;;;;;;;5051077;28;20550;-60
2023/03/12 13:18:07;;;;;;;12.40;11.20;;;;;;;;;;5050990;28;20921;-60
2023/03/12 13:20:36;;;;;;;12.57;11.30;;;;;;;;;;5050957;28;20441;-58
2023/03/12 13:23:11;;;;;;;13.33;12.10;;;;;;;;;;5051038;28;20585;-60
2023/03/12 13:25:41;;;;;;;15.57;11.97;;;;;;;;;;5051111;28;20434;-60
2023/03/12 13:28:36;;;;;;;13.80;12.13;;;;;;;;;;5051117;28;20992;-59
2023/03/12 13:31:23;;;;;;;14.97;11.80;;;;;;;;;;5050967;28;20442;-59
2023/03/12 13:33:51;;;;;;;13.33;11.93;;;;;;;;;;5050850;28;20427;-59
2023/03/12 13:36:22;;;;;;;16.23;12.90;;;;;;;;;;5050849;28;20520;-60
2023/03/12 13:38:58;;;;;;;14.30;12.53;;;;;;;;;;5050800;28;20439;-59
2023/03/12 13:41:32;;;;;;;16.87;13.47;;;;;;;;;;5050916;28;20434;-59
2023/03/12 13:43:58;;;;;;;14.17;12.87;;;;;;;;;;5050630;28;20820;-59
2023/03/12 13:46:40;;;;;;;13.53;12.13;;;;;;;;;;5051114;28;20434;-59
2023/03/12 13:49:12;;;;;;;13.30;11.77;;;;;;;;;;5054867;28;20488;-59
2023/03/12 13:51:43;;;;;;;15.17;13.77;;;;;;;;;;5054961;28;20455;-59
2023/03/12 13:54:15;;;;;;;13.67;12.27;;;;;;;;;;5055210;28;20469;-59
2023/03/12 13:56:45;;;;;;;13.97;12.37;;;;;;;;;;5055141;28;20530;-60
2023/03/12 13:59:15;;;;;;;13.30;12.00;;;;;;;;;;5054898;28;20458;-60
2023/03/12 14:01:42;;;;;;;14.03;12.63;;;;;;;;;;5054789;28;20846;-60
2023/03/12 14:04:11;;;;;;;15.80;12.47;;;;;;;;;;5054721;28;20481;-60
2023/03/12 14:06:54;;;;;;;14.73;12.80;;;;;;;;;;5054515;28;20442;-60
2023/03/12 14:09:23;;;;;;;13.73;12.27;;;;;;;;;;5054585;28;20466;-60
2023/03/12 14:11:53;;;;;;;14.47;13.00;;;;;;;;;;5054322;28;20538;-60
2023/03/12 14:14:40;;;;;;;14.00;12.63;;;;;;;;;;5053025;28;20446;-61
2023/03/12 14:17:12;;;;;;;15.27;13.67;;;;;;;;;;5054396;28;20536;-59
2023/03/12 14:19:38;;;;;;;15.17;12.87;;;;;;;;;;5054480;28;20442;-58
2023/03/12 14:22:07;;;;;;;14.40;13.00;;;;;;;;;;5054541;28;20447;-56
2023/03/12 14:24:34;;;;;;;14.03;12.63;;;;;;;;;;5054181;28;20438;-60
2023/03/12 14:27:01;;;;;;;13.67;12.27;;;;;;;;;;5058982;28;20430;-60
2023/03/12 14:29:28;;;;;;;13.20;11.90;;;;;;;;;;5074065;28;20440;-58
2023/03/12 14:31:56;;;;;;;13.43;11.57;;;;;;;;;;5074064;28;20455;-61
2023/03/12 14:34:24;;;;;;;13.17;11.90;;;;;;;;;;5074116;28;20902;-59
2023/03/12 14:36:55;;;;;;;14.47;11.63;;;;;;;;;;5074004;28;20437;-58
2023/03/12 14:39:26;;;;;;;14.07;12.47;;;;;;;;;;5074651;28;20426;-58
2023/03/12 14:41:55;;;;;;;12.63;11.53;;;;;;;;;;5073735;28;20478;-57
2023/03/12 14:44:22;;;;;;;13.03;10.93;;;;;;;;;;5073653;28;21033;-59